Time;durP1;ratioP1;P1;durP2;ratioP2;P2;SDS_P1;SDS_P2;PMS_P1;PMS_P2;Temp;Humidity;BMP_temperature;BMP_pressure;BME280_temperature;BME280_humidity;BME280_pressure;Samples;Min_cycle;Max_cycle;Signal;HPM_P1;HPM_P2
2022/09/22 00:00:57;;;;;;;0.50;0.50;;;8.30;99.90;;;;;;5073626;28;20293;-78
2022/09/22 00:03:24;;;;;;;0.50;0.40;;;8.30;99.90;;;;;;5073399;28;20199;-78
2022/09/22 00:05:59;;;;;;;0.75;0.75;;;8.20;99.90;;;;;;5077503;28;20303;-78
2022/09/22 00:08:26;;;;;;;0.50;0.40;;;8.30;99.90;;;;;;5072676;28;20217;-78
2022/09/22 00:11:00;;;;;;;0.50;0.40;;;8.30;99.90;;;;;;5072175;28;20200;-78
2022/09/22 00:13:27;;;;;;;0.50;0.50;;;8.30;99.90;;;;;;5072566;28;20202;-78
2022/09/22 00:15:54;;;;;;;0.50;0.40;;;8.30;99.90;;;;;;5072134;28;20219;-78
2022/09/22 00:18:22;;;;;;;0.50;0.40;;;8.20;99.90;;;;;;5072332;28;20200;-78
2022/09/22 00:20:49;;;;;;;0.50;0.40;;;8.20;99.90;;;;;;5072528;28;20286;-76
2022/09/22 00:23:16;;;;;;;0.50;0.40;;;8.10;99.90;;;;;;5072811;28;20202;-78
2022/09/22 00:25:42;;;;;;;0.50;0.50;;;8.10;99.90;;;;;;5071593;28;20231;-76
2022/09/22 00:28:10;;;;;;;0.50;0.40;;;8.00;99.90;;;;;;5072288;28;20197;-78
2022/09/22 00:30:40;;;;;;;0.50;0.40;;;8.00;99.90;;;;;;5072323;28;20195;-78
2022/09/22 00:33:08;;;;;;;0.50;0.40;;;8.00;99.90;;;;;;5072622;28;20216;-78
2022/09/22 00:35:37;;;;;;;0.50;0.50;;;8.00;99.90;;;;;;5072002;28;20210;-78
2022/09/22 00:38:05;;;;;;;0.50;0.40;;;8.00;99.90;;;;;;5072524;28;20198;-78
2022/09/22 00:40:32;;;;;;;0.50;0.40;;;8.00;99.90;;;;;;5072058;28;20201;-78
2022/09/22 00:43:13;;;;;;;0.50;0.40;;;7.90;99.90;;;;;;5072253;28;20226;-77
2022/09/22 00:45:40;;;;;;;1.67;1.58;;;7.90;99.90;;;;;;5072135;28;20266;-78
2022/09/22 00:48:07;;;;;;;0.50;0.45;;;7.90;99.90;;;;;;5072471;28;20193;-77
2022/09/22 00:50:36;;;;;;;0.50;0.50;;;7.90;99.90;;;;;;5075269;28;20199;-78
2022/09/22 00:53:08;;;;;;;0.50;0.40;;;7.90;99.90;;;;;;5076268;28;20283;-78
2022/09/22 00:55:39;;;;;;;0.50;0.40;;;8.00;99.90;;;;;;5076155;28;20231;-78
2022/09/22 00:58:09;;;;;;;0.50;0.50;;;7.90;99.90;;;;;;5075743;28;20225;-78
2022/09/22 01:00:36;;;;;;;0.50;0.40;;;7.90;99.90;;;;;;5075959;28;20281;-78
2022/09/22 01:03:07;;;;;;;1.77;1.67;;;7.90;99.90;;;;;;5077170;28;20229;-78
2022/09/22 01:05:37;;;;;;;0.50;0.40;;;7.80;99.90;;;;;;5075720;28;20216;-78
2022/09/22 01:08:04;;;;;;;3.20;2.90;;;7.80;99.90;;;;;;5076203;28;20694;-78
2022/09/22 01:10:31;;;;;;;0.50;0.40;;;7.80;99.90;;;;;;5057899;28;20197;-78
2022/09/22 01:13:10;;;;;;;0.50;0.45;;;7.80;99.90;;;;;;5055953;28;20201;-77
2022/09/22 01:15:44;;;;;;;0.50;0.50;;;7.70;99.90;;;;;;5055288;28;20217;-78
2022/09/22 01:18:19;;;;;;;0.50;0.40;;;7.70;99.90;;;;;;5055998;28;20203;-78
2022/09/22 01:21:13;;;;;;;0.50;0.40;;;7.60;99.90;;;;;;5056142;28;20206;-78
2022/09/22 01:24:08;;;;;;;0.50;0.40;;;7.60;99.90;;;;;;5055948;28;20631;-78
2022/09/22 01:27:07;;;;;;;0.50;0.40;;;7.50;99.90;;;;;;5056060;28;20235;-77
2022/09/22 01:30:08;;;;;;;0.50;0.40;;;7.60;99.90;;;;;;5055925;28;20296;-78
2022/09/22 01:32:42;;;;;;;0.50;0.40;;;7.60;99.90;;;;;;5055592;28;20199;-78
2022/09/22 01:35:18;;;;;;;0.50;0.40;;;7.60;99.90;;;;;;5055147;28;20732;-78
2022/09/22 01:37:56;;;;;;;0.50;0.40;;;7.60;99.90;;;;;;5055441;28;20193;-78
2022/09/22 01:40:30;;;;;;;0.50;0.40;;;7.60;99.90;;;;;;5055999;28;20264;-78
2022/09/22 01:43:06;;;;;;;0.50;0.40;;;7.50;99.90;;;;;;5055532;28;20276;-77
2022/09/22 01:45:36;;;;;;;0.57;0.40;;;7.50;99.90;;;;;;5055495;28;20214;-78
2022/09/22 01:48:08;;;;;;;0.50;0.40;;;7.60;99.90;;;;;;5055613;28;20288;-78
2022/09/22 01:50:40;;;;;;;0.50;0.40;;;7.50;99.90;;;;;;5055454;28;20205;-78
2022/09/22 01:53:10;;;;;;;0.50;0.40;;;7.50;99.90;;;;;;5055612;28;20291;-78
2022/09/22 01:55:39;;;;;;;0.50;0.50;;;7.50;99.90;;;;;;5055314;28;20217;-78
2022/09/22 01:58:11;;;;;;;0.50;0.43;;;7.60;99.90;;;;;;5054274;28;20719;-78
2022/09/22 02:00:44;;;;;;;0.50;0.40;;;7.50;99.90;;;;;;5055238;28;20176;-78
2022/09/22 02:03:15;;;;;;;0.50;0.40;;;7.50;99.90;;;;;;5055410;28;20196;-78
2022/09/22 02:05:48;;;;;;;0.50;0.40;;;7.40;99.90;;;;;;5054741;28;20704;-77
2022/09/22 02:08:21;;;;;;;0.50;0.40;;;7.40;99.90;;;;;;5055182;28;20214;-78
2022/09/22 02:10:49;;;;;;;0.50;0.40;;;7.40;99.90;;;;;;5055326;28;20206;-78
2022/09/22 02:13:16;;;;;;;0.50;0.50;;;7.30;99.90;;;;;;5055702;28;20205;-78
2022/09/22 02:16:02;;;;;;;0.50;0.40;;;7.20;99.90;;;;;;5054304;28;20214;-75
2022/09/22 02:18:35;;;;;;;0.50;0.40;;;7.20;99.90;;;;;;5054751;28;20201;-78
2022/09/22 02:21:03;;;;;;;0.50;0.40;;;7.20;99.90;;;;;;5054955;28;20206;-78
2022/09/22 02:23:31;;;;;;;0.50;0.40;;;7.20;99.90;;;;;;5055122;28;20202;-77
2022/09/22 02:25:59;;;;;;;0.50;0.40;;;7.20;99.90;;;;;;5054448;28;20715;-78
2022/09/22 02:28:26;;;;;;;0.50;0.40;;;7.20;99.90;;;;;;5054492;28;20253;-78
2022/09/22 02:30:57;;;;;;;0.50;0.40;;;7.20;99.90;;;;;;5055394;28;20202;-78
2022/09/22 02:33:26;;;;;;;0.50;0.40;;;7.20;99.90;;;;;;5055047;28;20264;-78
2022/09/22 02:36:02;;;;;;;0.50;0.40;;;7.10;99.90;;;;;;5054856;28;20223;-78
2022/09/22 02:38:35;;;;;;;0.50;0.40;;;7.20;99.90;;;;;;5054844;28;20552;-78
2022/09/22 02:41:10;;;;;;;0.50;0.40;;;7.10;99.90;;;;;;5055360;28;20194;-78
2022/09/22 02:43:40;;;;;;;0.50;0.40;;;7.10;99.90;;;;;;5055033;28;20182;-78
2022/09/22 02:46:15;;;;;;;0.50;0.40;;;7.10;99.90;;;;;;5055265;28;20228;-78
2022/09/22 02:48:46;;;;;;;0.50;0.40;;;7.00;99.90;;;;;;5055212;28;20185;-78
2022/09/22 02:51:14;;;;;;;0.50;0.50;;;7.00;99.90;;;;;;5055855;28;20591;-77
2022/09/22 02:53:41;;;;;;;0.50;0.50;;;7.00;99.90;;;;;;5056066;28;20200;-77
2022/09/22 02:56:08;;;;;;;0.50;0.43;;;7.00;99.90;;;;;;5055124;28;20214;-78
2022/09/22 02:58:35;;;;;;;0.50;0.40;;;6.90;99.90;;;;;;5054990;28;20195;-78
2022/09/22 03:01:02;;;;;;;0.50;0.40;;;6.90;99.90;;;;;;5055245;28;20197;-78
2022/09/22 03:03:30;;;;;;;0.50;0.40;;;6.90;99.90;;;;;;5054857;28;20206;-78
2022/09/22 03:05:57;;;;;;;0.50;0.50;;;6.80;99.90;;;;;;5054256;28;20301;-77
2022/09/22 03:08:23;;;;;;;0.50;0.40;;;6.80;99.90;;;;;;5053682;28;20200;-77
2022/09/22 03:10:50;;;;;;;0.50;0.40;;;6.90;99.90;;;;;;5054254;28;20197;-76
2022/09/22 03:13:17;;;;;;;0.50;0.40;;;6.90;99.90;;;;;;5054258;28;20293;-78
2022/09/22 03:15:45;;;;;;;0.50;0.40;;;6.80;99.90;;;;;;5053996;28;20647;-76
2022/09/22 03:18:12;;;;;;;0.50;0.40;;;6.80;99.90;;;;;;5054224;28;20216;-77
2022/09/22 03:20:40;;;;;;;0.50;0.40;;;6.80;99.90;;;;;;5054080;28;20222;-77
2022/09/22 03:23:07;;;;;;;0.50;0.40;;;6.80;99.90;;;;;;5054654;28;20191;-78
2022/09/22 03:25:33;;;;;;;0.50;0.43;;;6.80;99.90;;;;;;5054229;28;20317;-78
2022/09/22 03:28:01;;;;;;;0.50;0.40;;;6.80;99.90;;;;;;5054690;28;20198;-78
2022/09/22 03:30:27;;;;;;;0.82;0.82;;;6.80;99.90;;;;;;5054018;28;20199;-78
2022/09/22 03:32:54;;;;;;;0.50;0.40;;;6.80;99.90;;;;;;5054090;28;20723;-76
2022/09/22 03:35:21;;;;;;;0.50;0.40;;;6.80;99.90;;;;;;5054495;28;20289;-77
2022/09/22 03:37:49;;;;;;;0.50;0.40;;;6.80;99.90;;;;;;5054104;28;20692;-77
2022/09/22 03:40:16;;;;;;;0.50;0.40;;;6.80;99.90;;;;;;5054397;28;20195;-78
2022/09/22 03:42:44;;;;;;;0.50;0.40;;;6.80;99.90;;;;;;5053999;28;20201;-78
2022/09/22 03:45:13;;;;;;;0.50;0.40;;;6.80;99.90;;;;;;5054312;28;20261;-78
2022/09/22 03:47:41;;;;;;;0.50;0.40;;;6.80;99.90;;;;;;5054249;28;20576;-78
2022/09/22 03:50:08;;;;;;;0.50;0.40;;;6.70;99.90;;;;;;5054972;28;20564;-77
2022/09/22 03:52:35;;;;;;;0.50;0.40;;;6.70;99.90;;;;;;5058348;28;20205;-77
2022/09/22 03:55:04;;;;;;;0.50;0.40;;;6.70;99.90;;;;;;5072506;28;20326;-76
2022/09/22 03:57:31;;;;;;;0.50;0.40;;;6.70;99.90;;;;;;5072447;28;20226;-76
2022/09/22 03:59:57;;;;;;;0.50;0.40;;;6.70;99.90;;;;;;5072644;28;20744;-76
2022/09/22 04:02:24;;;;;;;0.60;0.60;;;6.60;99.90;;;;;;5072374;28;20221;-76
2022/09/22 04:04:51;;;;;;;0.50;0.40;;;6.60;99.90;;;;;;5073273;28;20194;-77
2022/09/22 04:07:18;;;;;;;0.50;0.40;;;6.60;99.90;;;;;;5073927;28;20187;-79
2022/09/22 04:09:45;;;;;;;0.50;0.40;;;6.60;99.90;;;;;;5073877;28;20296;-79
2022/09/22 04:12:13;;;;;;;1.23;0.98;;;6.60;99.90;;;;;;5073792;28;20208;-78
2022/09/22 04:14:40;;;;;;;0.80;0.80;;;6.60;99.90;;;;;;5072217;28;20623;-78
2022/09/22 04:17:07;;;;;;;1.13;1.13;;;6.50;99.90;;;;;;5073511;28;20228;-77
2022/09/22 04:19:35;;;;;;;0.50;0.40;;;6.50;99.90;;;;;;5083673;22;20216;-76
2022/09/22 04:22:02;;;;;;;0.50;0.40;;;6.50;99.90;;;;;;5068977;28;20186;-77
2022/09/22 04:24:29;;;;;;;0.50;0.50;;;6.50;99.90;;;;;;5070611;28;20197;-76
2022/09/22 04:26:56;;;;;;;0.50;0.50;;;6.50;99.90;;;;;;5071337;28;20617;-76
2022/09/22 04:29:24;;;;;;;0.50;0.40;;;6.40;99.90;;;;;;5071362;28;20218;-76
2022/09/22 04:31:51;;;;;;;0.50;0.50;;;6.50;99.90;;;;;;5071430;28;20758;-77
2022/09/22 04:34:17;;;;;;;0.50;0.50;;;6.50;99.90;;;;;;5071311;28;20198;-76
2022/09/22 04:36:44;;;;;;;0.50;0.50;;;6.50;99.90;;;;;;5071291;28;20221;-77
2022/09/22 04:39:11;;;;;;;0.50;0.40;;;6.50;99.90;;;;;;5071039;28;20289;-75
2022/09/22 04:41:38;;;;;;;0.50;0.40;;;6.50;99.90;;;;;;5071082;28;20198;-77
2022/09/22 04:44:05;;;;;;;0.50;0.40;;;6.60;99.90;;;;;;5070898;28;20194;-77
2022/09/22 04:46:33;;;;;;;3.42;1.77;;;6.50;99.90;;;;;;5071075;28;20201;-77
2022/09/22 04:49:00;;;;;;;0.50;0.40;;;6.50;99.90;;;;;;5071047;28;20285;-76
2022/09/22 04:51:27;;;;;;;0.50;0.40;;;6.50;99.90;;;;;;5070722;28;20224;-76
2022/09/22 04:53:54;;;;;;;0.50;0.40;;;6.50;99.90;;;;;;5070824;28;20198;-73
2022/09/22 04:56:21;;;;;;;0.50;0.40;;;6.50;99.90;;;;;;5071543;28;20230;-77
2022/09/22 04:58:48;;;;;;;0.50;0.50;;;6.50;99.90;;;;;;5063750;28;20196;-77
2022/09/22 05:01:14;;;;;;;0.77;0.77;;;6.50;99.90;;;;;;5064664;28;20304;-76
2022/09/22 05:03:43;;;;;;;0.50;0.40;;;6.50;99.90;;;;;;5071049;28;20571;-76
2022/09/22 05:06:09;;;;;;;0.50;0.40;;;6.50;99.90;;;;;;5061432;28;20193;-77
2022/09/22 05:08:36;;;;;;;0.50;0.45;;;6.50;99.90;;;;;;5070710;28;20187;-75
2022/09/22 05:11:08;;;;;;;0.50;0.40;;;6.50;99.90;;;;;;5070602;28;20220;-76
2022/09/22 05:13:37;;;;;;;0.50;0.40;;;6.50;99.90;;;;;;5070598;28;20221;-76
2022/09/22 05:16:05;;;;;;;0.50;0.40;;;6.50;99.90;;;;;;5070529;28;20566;-76
2022/09/22 05:18:32;;;;;;;0.50;0.40;;;6.40;99.90;;;;;;5070591;28;20669;-76
2022/09/22 05:21:00;;;;;;;0.50;0.40;;;6.40;99.90;;;;;;5070658;28;20224;-77
2022/09/22 05:23:27;;;;;;;0.50;0.40;;;6.40;99.90;;;;;;5071153;28;20189;-77
2022/09/22 05:25:55;;;;;;;0.50;0.40;;;6.40;99.90;;;;;;5070445;28;20198;-77
2022/09/22 05:28:23;;;;;;;0.50;0.50;;;6.50;99.90;;;;;;5070411;28;20237;-77
2022/09/22 05:30:50;;;;;;;0.50;0.40;;;6.50;99.90;;;;;;5070678;28;20225;-77
2022/09/22 05:33:17;;;;;;;1.73;1.63;;;6.50;99.90;;;;;;5069880;28;20252;-77
2022/09/22 05:35:44;;;;;;;0.50;0.40;;;6.60;99.90;;;;;;5071310;28;20191;-77
2022/09/22 05:38:12;;;;;;;0.50;0.40;;;6.60;99.90;;;;;;5074074;28;20220;-77
2022/09/22 05:40:39;;;;;;;0.75;0.75;;;6.70;99.90;;;;;;5073920;28;20711;-75
2022/09/22 05:43:06;;;;;;;0.50;0.40;;;6.70;99.90;;;;;;5073642;28;20230;-77
2022/09/22 05:45:32;;;;;;;0.50;0.50;;;6.80;99.90;;;;;;5073807;28;20199;-77
2022/09/22 05:47:59;;;;;;;0.50;0.43;;;6.80;99.90;;;;;;5074170;28;20193;-77
2022/09/22 05:50:26;;;;;;;0.50;0.40;;;6.80;99.90;;;;;;5073963;28;20306;-77
2022/09/22 05:53:02;;;;;;;0.50;0.40;;;6.80;99.90;;;;;;5073852;28;20697;-77
2022/09/22 05:55:30;;;;;;;2.50;2.20;;;6.80;99.90;;;;;;5073557;28;20174;-77
2022/09/22 05:57:57;;;;;;;0.50;0.40;;;6.90;99.90;;;;;;5073634;28;20224;-76
2022/09/22 06:00:24;;;;;;;0.50;0.40;;;7.00;99.90;;;;;;5073493;28;20222;-77
2022/09/22 06:02:51;;;;;;;0.50;0.40;;;7.00;99.90;;;;;;5074241;28;20278;-77
2022/09/22 06:05:18;;;;;;;0.50;0.40;;;7.00;99.90;;;;;;5073131;28;20289;-77
2022/09/22 06:07:45;;;;;;;2.05;1.95;;;7.10;99.90;;;;;;5073973;28;20571;-77
2022/09/22 06:10:12;;;;;;;0.50;0.40;;;7.20;99.90;;;;;;5073482;28;20310;-77
2022/09/22 06:12:40;;;;;;;0.50;0.40;;;7.20;99.90;;;;;;5073694;28;20191;-77
2022/09/22 06:15:08;;;;;;;0.50;0.40;;;7.30;99.90;;;;;;5072752;28;20194;-77
2022/09/22 06:17:34;;;;;;;0.50;0.40;;;7.40;99.90;;;;;;5073427;28;20206;-77
2022/09/22 06:20:02;;;;;;;0.50;0.40;;;7.50;99.90;;;;;;5072986;28;20232;-77
2022/09/22 06:22:29;;;;;;;0.50;0.40;;;7.60;99.90;;;;;;5073783;28;20204;-77
2022/09/22 06:24:56;;;;;;;0.50;0.40;;;7.80;99.90;;;;;;5072984;28;20662;-77
2022/09/22 06:27:23;;;;;;;0.50;0.40;;;7.90;99.90;;;;;;5073198;28;20285;-77
2022/09/22 06:29:51;;;;;;;0.60;0.55;;;8.00;99.90;;;;;;5073353;28;20306;-77
2022/09/22 06:32:18;;;;;;;0.50;0.40;;;8.10;99.90;;;;;;5073165;28;20219;-77
2022/09/22 06:34:46;;;;;;;0.50;0.40;;;8.20;99.90;;;;;;5072981;28;20602;-76
2022/09/22 06:37:13;;;;;;;0.50;0.40;;;8.90;99.90;;;;;;5072973;28;20277;-76
2022/09/22 06:39:39;;;;;;;0.50;0.40;;;10.70;99.90;;;;;;5073155;28;20703;-77
2022/09/22 06:42:06;;;;;;;0.50;0.50;;;11.80;99.90;;;;;;5073195;28;20237;-77
2022/09/22 06:44:34;;;;;;;0.50;0.40;;;12.30;99.90;;;;;;5073279;28;20635;-78
2022/09/22 06:47:05;;;;;;;0.50;0.40;;;12.70;99.90;;;;;;5072066;28;20455;-77
2022/09/22 06:49:31;;;;;;;0.50;0.40;;;13.00;99.90;;;;;;5073374;28;20814;-78
2022/09/22 06:51:58;;;;;;;0.50;0.40;;;13.50;99.90;;;;;;5072735;28;20925;-78
2022/09/22 06:54:25;;;;;;;0.50;0.40;;;14.60;99.90;;;;;;5072700;28;20527;-77
2022/09/22 06:56:52;;;;;;;0.50;0.40;;;15.50;99.90;;;;;;5072894;28;20527;-77
2022/09/22 06:59:19;;;;;;;0.50;0.40;;;16.20;99.90;;;;;;5072281;28;20562;-76
2022/09/22 07:01:46;;;;;;;0.70;0.70;;;17.40;99.90;;;;;;5072396;28;20941;-78
2022/09/22 07:04:16;;;;;;;0.50;0.40;;;18.50;99.90;;;;;;5072646;28;20436;-75
2022/09/22 07:06:44;;;;;;;1.20;1.07;;;18.40;99.90;;;;;;5072526;28;20436;-75
2022/09/22 07:09:11;;;;;;;0.50;0.30;;;17.90;99.90;;;;;;5072689;28;20505;-78
2022/09/22 07:11:38;;;;;;;0.50;0.30;;;17.50;99.90;;;;;;5072750;28;20531;-78
2022/09/22 07:14:05;;;;;;;0.50;0.40;;;17.10;99.90;;;;;;5072346;28;20446;-78
2022/09/22 07:16:32;;;;;;;0.50;0.40;;;16.70;99.90;;;;;;5071747;28;20540;-78
2022/09/22 07:18:59;;;;;;;0.50;0.40;;;16.60;99.90;;;;;;5072829;28;20554;-78
2022/09/22 07:21:31;;;;;;;0.50;0.40;;;16.80;99.90;;;;;;5072195;28;20555;-78
2022/09/22 07:23:59;;;;;;;1.43;1.33;;;16.70;99.90;;;;;;5071891;28;20789;-78
2022/09/22 07:26:27;;;;;;;0.50;0.40;;;16.30;99.90;;;;;;5072492;28;20531;-78
2022/09/22 07:28:58;;;;;;;0.50;0.40;;;15.90;99.90;;;;;;5072096;28;20460;-77
2022/09/22 07:31:26;;;;;;;1.80;1.70;;;16.30;99.90;;;;;;5072325;28;20821;-78
2022/09/22 07:33:54;;;;;;;0.50;0.40;;;16.90;99.90;;;;;;5071709;28;20440;-75
2022/09/22 07:36:22;;;;;;;0.50;0.40;;;17.20;99.90;;;;;;5071804;28;20831;-75
2022/09/22 07:38:52;;;;;;;0.50;0.40;;;17.10;99.90;;;;;;5072003;28;20476;-79
2022/09/22 07:41:20;;;;;;;2.10;1.80;;;16.90;99.90;;;;;;5072193;28;20467;-76
2022/09/22 07:43:50;;;;;;;0.50;0.40;;;17.00;99.90;;;;;;5071420;28;20438;-76
2022/09/22 07:46:17;;;;;;;0.50;0.33;;;17.70;99.90;;;;;;5071850;28;20447;-75
2022/09/22 07:48:46;;;;;;;0.50;0.30;;;18.40;99.90;;;;;;5072058;28;20853;-76
2022/09/22 07:51:18;;;;;;;0.50;0.40;;;19.20;99.90;;;;;;5071478;28;20498;-76
2022/09/22 07:53:46;;;;;;;0.50;0.50;;;20.30;99.90;;;;;;5071673;28;20421;-76
2022/09/22 07:56:17;;;;;;;0.50;0.30;;;22.60;99.90;;;;;;5071382;28;20436;-77
2022/09/22 07:58:49;;;;;;;47.90;27.67;;;24.80;98.40;;;;;;5071062;28;20479;-76
2022/09/22 08:01:17;;;;;;;1.60;1.53;;;25.90;83.90;;;;;;5071449;28;20496;-77
2022/09/22 08:03:46;;;;;;;0.50;0.30;;;27.70;76.80;;;;;;5071686;28;20495;-77
2022/09/22 08:06:14;;;;;;;0.50;0.30;;;29.30;70.20;;;;;;5071264;28;20524;-77
2022/09/22 08:08:43;;;;;;;3.33;2.70;;;30.50;60.20;;;;;;5071608;28;20436;-77
2022/09/22 08:11:13;;;;;;;0.77;0.77;;;30.80;59.10;;;;;;5071457;28;20465;-76
2022/09/22 08:13:43;;;;;;;0.50;0.47;;;29.30;54.80;;;;;;5071323;28;20431;-76
2022/09/22 08:16:10;;;;;;;0.50;0.30;;;29.50;57.50;;;;;;5070887;28;21074;-77
2022/09/22 08:18:38;;;;;;;0.50;0.30;;;30.20;55.50;;;;;;5071511;28;20472;-77
2022/09/22 08:21:05;;;;;;;0.50;0.40;;;30.30;54.30;;;;;;5071085;28;20470;-76
2022/09/22 08:23:32;;;;;;;0.50;0.40;;;30.90;52.00;;;;;;5071637;28;20438;-76
2022/09/22 08:26:04;;;;;;;0.60;0.40;;;29.70;52.40;;;;;;5071082;28;20440;-76
2022/09/22 08:28:31;;;;;;;0.60;0.50;;;30.70;54.50;;;;;;5071052;28;20439;-76
2022/09/22 08:31:01;;;;;;;0.50;0.30;;;31.50;51.70;;;;;;5071279;28;20460;-76
2022/09/22 08:33:30;;;;;;;0.50;0.30;;;31.10;52.10;;;;;;5071210;28;20436;-76
2022/09/22 08:36:02;;;;;;;0.50;0.30;;;30.40;52.60;;;;;;5070819;28;20436;-77
2022/09/22 08:38:31;;;;;;;0.50;0.30;;;31.20;54.10;;;;;;5071223;28;20948;-76
2022/09/22 08:41:18;;;;;;;0.50;0.30;;;32.60;54.40;;;;;;5071249;28;20826;-77
2022/09/22 08:43:49;;;;;;;0.50;0.30;;;33.70;49.70;;;;;;5071042;28;20409;-75
2022/09/22 08:46:17;;;;;;;0.50;0.37;;;33.50;47.50;;;;;;5071064;28;20470;-72
2022/09/22 08:51:52;;;;;;;0.50;0.37;;;32.40;47.10;;;;;;5070797;28;20454;-76
2022/09/22 08:54:19;;;;;;;0.50;0.40;;;32.20;47.10;;;;;;5070643;28;20494;-75
2022/09/22 08:56:56;;;;;;;0.50;0.30;;;31.40;47.70;;;;;;5070554;28;20432;-78
2022/09/22 08:59:25;;;;;;;0.50;0.30;;;31.70;48.10;;;;;;5070928;28;20988;-75
2022/09/22 09:02:16;;;;;;;0.50;0.30;;;31.20;46.90;;;;;;5070382;28;20537;-76
2022/09/22 09:05:05;;;;;;;0.50;0.40;;;30.70;48.30;;;;;;5053150;28;20444;-76
2022/09/22 09:07:44;;;;;;;0.50;0.30;;;30.80;47.40;;;;;;5070564;28;20425;-76
2022/09/22 09:10:29;;;;;;;0.50;0.40;;;30.30;49.00;;;;;;5071540;28;20859;-74
2022/09/22 09:13:06;;;;;;;0.50;0.30;;;30.90;49.00;;;;;;5074920;28;20416;-76
2022/09/22 09:15:55;;;;;;;0.50;0.30;;;31.20;51.00;;;;;;5073400;28;20928;-76
2022/09/22 09:18:32;;;;;;;23.50;13.07;;;30.30;47.00;;;;;;5074938;28;20456;-78
2022/09/22 09:21:03;;;;;;;8.77;4.97;;;28.50;64.60;;;;;;5074217;28;20470;-77
2022/09/22 09:23:34;;;;;;;8.23;4.63;;;27.40;65.60;;;;;;5074248;28;20439;-76
2022/09/22 09:26:02;;;;;;;9.17;7.40;;;27.60;67.10;;;;;;5074343;28;20513;-76
2022/09/22 09:28:34;;;;;;;4.23;1.43;;;28.60;68.80;;;;;;5074621;28;20515;-76
2022/09/22 09:31:09;;;;;;;2.13;0.73;;;28.40;57.30;;;;;;5074205;28;20463;-75
2022/09/22 09:33:47;;;;;;;0.50;0.43;;;28.00;53.30;;;;;;5074312;28;20438;-78
2022/09/22 09:36:17;;;;;;;0.60;0.57;;;27.70;52.60;;;;;;5074075;28;20434;-78
2022/09/22 09:38:49;;;;;;;21.57;19.60;;;27.20;54.90;;;;;;5074199;28;20478;-76
2022/09/22 09:41:20;;;;;;;5.53;2.03;;;27.90;66.80;;;;;;5074697;28;20456;-78
2022/09/22 09:43:49;;;;;;;9.90;9.03;;;28.30;55.20;;;;;;5074301;28;20431;-78
2022/09/22 09:46:28;;;;;;;18.83;8.87;;;28.90;66.80;;;;;;5074050;28;20447;-72
2022/09/22 09:49:05;;;;;;;37.90;13.53;;;29.00;62.30;;;;;;5075085;28;20507;-78
2022/09/22 09:51:35;;;;;;;2.63;2.40;;;29.30;56.60;;;;;;5073477;28;21002;-76
2022/09/22 09:54:05;;;;;;;9.70;6.47;;;29.20;60.40;;;;;;5073479;28;20439;-76
2022/09/22 09:56:35;;;;;;;11.17;10.07;;;27.50;72.00;;;;;;5074009;28;20440;-76
2022/09/22 10:02:02;;;;;;;1.23;0.80;;;26.20;57.00;;;;;;5031726;28;20417;-76
2022/09/22 10:04:33;;;;;;;0.50;0.30;;;26.40;56.20;;;;;;5062898;28;20782;-76
2022/09/22 10:07:11;;;;;;;10.93;5.40;;;26.70;66.80;;;;;;5074273;28;20425;-76
2022/09/22 10:09:39;;;;;;;31.80;20.47;;;27.60;59.60;;;;;;5073583;28;21020;-75
2022/09/22 10:12:19;;;;;;;21.93;15.37;;;26.90;96.50;;;;;;5073805;28;20447;-75
2022/09/22 10:14:50;;;;;;;20.77;8.13;;;24.10;99.90;;;;;;5073530;28;20517;-75
2022/09/22 10:17:21;;;;;;;98.77;21.50;;;22.30;99.90;;;;;;5073914;28;20435;-73
2022/09/22 10:19:50;;;;;;;8.80;7.37;;;22.30;99.90;;;;;;5073244;28;20488;-75
2022/09/22 10:22:23;;;;;;;4.40;2.13;;;22.80;99.90;;;;;;5073858;28;20485;-77
2022/09/22 10:24:59;;;;;;;6.87;5.30;;;23.70;95.90;;;;;;5072832;28;20432;-77
2022/09/22 10:27:28;;;;;;;2.70;1.70;;;25.10;99.90;;;;;;5073703;28;20867;-76
2022/09/22 10:30:29;;;;;;;0.50;0.30;;;25.60;71.80;;;;;;5073330;28;20459;-77
2022/09/22 10:33:12;;;;;;;9.83;5.67;;;25.50;65.10;;;;;;5073145;28;20494;-76
2022/09/22 10:35:41;;;;;;;14.73;4.93;;;26.70;70.70;;;;;;5073137;28;20520;-78
2022/09/22 10:38:17;;;;;;;5.40;2.33;;;26.80;62.30;;;;;;5073081;28;20922;-76
2022/09/22 10:40:48;;;;;;;7.90;4.20;;;26.60;69.00;;;;;;5072977;28;20892;-77
2022/09/22 10:43:30;;;;;;;2.40;2.30;;;27.00;67.70;;;;;;5073349;28;20441;-76
2022/09/22 10:46:15;;;;;;;0.77;0.77;;;28.30;70.40;;;;;;5073485;28;20423;-76
2022/09/22 10:48:47;;;;;;;5.73;3.30;;;29.00;57.70;;;;;;5074315;28;20447;-76
2022/09/22 10:51:27;;;;;;;6.13;4.63;;;28.50;67.70;;;;;;5073118;28;20471;-76
2022/09/22 10:54:14;;;;;;;11.23;2.20;;;29.10;56.30;;;;;;5073413;28;20432;-76
2022/09/22 10:56:46;;;;;;;0.50;0.30;;;27.80;59.90;;;;;;5074783;28;20511;-77
2022/09/22 10:59:27;;;;;;;36.20;15.97;;;27.40;61.50;;;;;;5073093;28;20480;-76
2022/09/22 11:02:17;;;;;;;0.50;0.30;;;27.60;65.40;;;;;;5072517;28;20451;-74
2022/09/22 11:04:56;;;;;;;0.50;0.30;;;27.00;58.70;;;;;;5069185;28;20452;-75
2022/09/22 11:13:30;;;;;;;0.50;0.30;;;28.40;54.90;;;;;;5072713;28;20439;-76
2022/09/22 11:16:22;;;;;;;0.50;0.30;;;28.20;53.50;;;;;;5071669;28;20432;-76
2022/09/22 11:19:13;;;;;;;0.70;0.70;;;28.10;55.10;;;;;;5072331;28;20479;-74
2022/09/22 11:21:56;;;;;;;0.50;0.40;;;29.20;52.70;;;;;;5072861;28;20436;-74
2022/09/22 11:24:53;;;;;;;0.50;0.40;;;29.50;51.70;;;;;;5072355;28;20416;-75
2022/09/22 11:27:30;;;;;;;0.50;0.40;;;29.20;52.70;;;;;;5055891;28;20448;-74
2022/09/22 11:30:09;;;;;;;0.50;0.30;;;28.40;50.20;;;;;;5072138;28;20460;-76
2022/09/22 11:33:01;;;;;;;0.50;0.30;;;26.80;51.70;;;;;;5072252;28;20511;-75
2022/09/22 11:35:37;;;;;;;0.50;0.40;;;27.10;52.00;;;;;;5068759;28;20467;-75
2022/09/22 11:38:17;;;;;;;0.50;0.30;;;27.60;52.70;;;;;;5071718;28;20435;-75
2022/09/22 11:41:07;;;;;;;0.50;0.30;;;27.40;53.20;;;;;;5071652;28;20484;-75
2022/09/22 11:43:44;;;;;;;0.60;0.40;;;28.80;53.80;;;;;;5071899;28;20436;-76
2022/09/22 11:46:21;;;;;;;0.63;0.40;;;28.50;51.70;;;;;;5071641;28;20443;-75
2022/09/22 11:49:03;;;;;;;0.50;0.30;;;28.60;50.00;;;;;;5072074;28;20420;-76
2022/09/22 11:51:40;;;;;;;0.90;0.80;;;29.20;50.20;;;;;;5071714;28;20448;-76
2022/09/22 11:54:24;;;;;;;0.50;0.30;;;29.00;50.40;;;;;;5071659;28;20431;-75
2022/09/22 11:56:55;;;;;;;3.03;0.97;;;27.90;50.50;;;;;;5072377;28;20470;-78
2022/09/22 11:59:32;;;;;;;0.60;0.60;;;27.00;49.50;;;;;;5071706;28;20471;-75
2022/09/22 12:02:03;;;;;;;0.50;0.30;;;26.80;52.30;;;;;;5072047;28;20421;-75
2022/09/22 12:04:40;;;;;;;0.50;0.30;;;27.10;51.00;;;;;;5071805;28;20476;-76
2022/09/22 12:07:13;;;;;;;0.50;0.30;;;27.70;52.50;;;;;;5071033;28;20421;-76
2022/09/22 12:09:45;;;;;;;0.50;0.30;;;27.60;49.90;;;;;;5071583;28;20464;-77
2022/09/22 12:12:17;;;;;;;0.50;0.30;;;27.60;49.60;;;;;;5070999;28;20542;-74
2022/09/22 12:14:48;;;;;;;0.50;0.30;;;28.40;54.10;;;;;;5070326;28;20423;-76
2022/09/22 12:17:22;;;;;;;0.50;0.30;;;29.00;50.20;;;;;;5071375;28;20811;-75
2022/09/22 12:19:58;;;;;;;0.50;0.30;;;29.10;48.10;;;;;;5070822;28;20482;-76
2022/09/22 12:22:30;;;;;;;0.50;0.30;;;29.60;49.70;;;;;;5071371;28;20439;-77
2022/09/22 12:24:57;;;;;;;0.50;0.30;;;30.10;49.30;;;;;;5070763;28;20432;-76
2022/09/22 12:27:27;;;;;;;0.50;0.30;;;30.40;46.40;;;;;;5071322;28;20797;-76
2022/09/22 12:29:56;;;;;;;0.50;0.30;;;30.70;46.30;;;;;;5071551;28;20462;-76
2022/09/22 12:32:27;;;;;;;0.50;0.30;;;31.10;46.50;;;;;;5071174;28;20451;-76
2022/09/22 12:34:58;;;;;;;0.50;0.30;;;30.40;45.30;;;;;;5071023;28;20919;-76
2022/09/22 12:37:28;;;;;;;0.50;0.30;;;30.00;48.20;;;;;;5071116;28;20555;-76
2022/09/22 12:39:59;;;;;;;0.50;0.30;;;30.20;47.40;;;;;;5070857;28;20479;-76
2022/09/22 12:42:34;;;;;;;0.50;0.30;;;30.20;46.90;;;;;;5070737;28;20951;-76
2022/09/22 12:45:07;;;;;;;0.50;0.30;;;30.10;47.00;;;;;;5070529;28;20471;-76
2022/09/22 12:47:37;;;;;;;0.50;0.30;;;30.00;47.40;;;;;;5070923;28;20444;-76
2022/09/22 12:50:07;;;;;;;1.67;1.57;;;31.00;47.30;;;;;;5070904;28;20464;-76
2022/09/22 12:53:10;;;;;;;1.43;1.33;;;31.20;47.10;;;;;;5071283;28;20428;-76
2022/09/22 12:55:40;;;;;;;0.50;0.30;;;31.80;46.10;;;;;;5070771;28;20763;-77
2022/09/22 12:58:40;;;;;;;0.47;0.30;;;32.40;46.30;;;;;;5070928;28;20432;-76
2022/09/22 13:01:31;;;;;;;0.53;0.43;;;32.30;47.50;;;;;;5070691;28;20476;-76
2022/09/22 13:04:16;;;;;;;0.50;0.30;;;31.30;44.50;;;;;;5070582;28;20440;-75
2022/09/22 13:06:57;;;;;;;1.50;1.47;;;29.80;44.70;;;;;;5070767;28;20864;-76
2022/09/22 13:09:28;;;;;;;0.67;0.63;;;29.20;46.60;;;;;;5070306;28;20863;-75
2022/09/22 13:12:26;;;;;;;0.50;0.30;;;28.40;47.40;;;;;;5070649;28;20436;-75
2022/09/22 13:14:58;;;;;;;0.50;0.30;;;28.40;47.80;;;;;;5070066;28;20444;-76
2022/09/22 13:17:41;;;;;;;0.50;0.30;;;29.20;47.50;;;;;;5070450;28;20440;-76
2022/09/22 13:20:18;;;;;;;0.50;0.30;;;28.90;47.00;;;;;;5070426;28;20491;-77
2022/09/22 13:22:46;;;;;;;0.50;0.30;;;28.00;48.50;;;;;;5071315;28;20798;-76
2022/09/22 13:25:20;;;;;;;0.50;0.40;;;28.00;49.10;;;;;;5070163;28;20491;-76